Time;durP1;ratioP1;P1;durP2;ratioP2;P2;SDS_P1;SDS_P2;PMS_P1;PMS_P2;Temp;Humidity;BMP_temperature;BMP_pressure;BME280_temperature;BME280_humidity;BME280_pressure;Samples;Min_cycle;Max_cycle;Signal;HPM_P1;HPM_P2
2023/06/23 00:00:44;;;;;;;8.15;5.45;;;;;;;;;;5133881;28;20220;-64
2023/06/23 00:03:32;;;;;;;6.20;4.82;;;;;;;;;;5133961;28;20199;-63
2023/06/23 00:06:00;;;;;;;7.30;5.47;;;;;;;;;;5134066;28;20233;-63
2023/06/23 00:08:27;;;;;;;10.25;6.30;;;;;;;;;;5134168;28;20206;-62
2023/06/23 00:10:54;;;;;;;9.98;5.95;;;;;;;;;;5133931;28;20205;-63
2023/06/23 00:13:23;;;;;;;10.32;5.85;;;;;;;;;;5135277;27;20207;-64
2023/06/23 00:15:53;;;;;;;11.88;6.03;;;;;;;;;;5137505;27;20202;-63
2023/06/23 00:18:20;;;;;;;9.90;6.85;;;;;;;;;;5137850;27;20265;-63
2023/06/23 00:20:48;;;;;;;9.75;6.15;;;;;;;;;;5137232;27;20228;-62
2023/06/23 00:23:15;;;;;;;13.75;6.90;;;;;;;;;;5137317;27;20658;-63
2023/06/23 00:25:42;;;;;;;7.95;5.72;;;;;;;;;;5137610;27;20246;-64
2023/06/23 00:28:09;;;;;;;10.48;6.78;;;;;;;;;;5137366;27;20532;-62
2023/06/23 00:30:37;;;;;;;8.65;6.47;;;;;;;;;;5119022;27;20198;-63
2023/06/23 00:33:04;;;;;;;9.35;6.05;;;;;;;;;;5119150;27;20247;-63
2023/06/23 00:35:32;;;;;;;10.90;6.55;;;;;;;;;;5137486;27;20201;-63
2023/06/23 00:37:59;;;;;;;10.27;5.93;;;;;;;;;;5119100;27;20206;-63
2023/06/23 00:40:26;;;;;;;14.00;5.30;;;;;;;;;;5137021;27;20240;-64
2023/06/23 00:42:53;;;;;;;8.70;5.43;;;;;;;;;;5136904;27;20202;-63
2023/06/23 00:45:24;;;;;;;9.20;5.90;;;;;;;;;;5136977;27;20202;-63
2023/06/23 00:47:51;;;;;;;9.77;6.15;;;;;;;;;;5136877;27;20724;-62
2023/06/23 00:50:20;;;;;;;16.58;5.28;;;;;;;;;;5136608;27;20210;-63
2023/06/23 00:52:51;;;;;;;14.48;5.70;;;;;;;;;;5136781;27;20667;-62
2023/06/23 00:55:24;;;;;;;10.30;5.95;;;;;;;;;;5137037;27;20182;-62
2023/06/23 00:57:54;;;;;;;11.70;8.30;;;;;;;;;;5137114;27;20242;-62
2023/06/23 01:00:22;;;;;;;9.60;6.85;;;;;;;;;;5137069;27;20225;-63
2023/06/23 01:02:52;;;;;;;14.05;8.27;;;;;;;;;;5137018;27;20193;-62
2023/06/23 01:05:23;;;;;;;15.20;6.53;;;;;;;;;;5136527;27;20229;-63
2023/06/23 01:08:13;;;;;;;13.82;7.00;;;;;;;;;;5136402;27;20194;-63
2023/06/23 01:10:56;;;;;;;12.00;6.90;;;;;;;;;;5136676;27;20201;-63
2023/06/23 01:13:29;;;;;;;13.68;7.93;;;;;;;;;;5118272;27;20660;-63
2023/06/23 01:16:09;;;;;;;14.40;7.07;;;;;;;;;;5136287;27;20197;-62
2023/06/23 01:18:46;;;;;;;15.18;7.78;;;;;;;;;;5118970;27;20210;-63
2023/06/23 01:21:16;;;;;;;12.90;8.07;;;;;;;;;;5136468;27;20232;-63
2023/06/23 01:24:03;;;;;;;16.75;7.65;;;;;;;;;;5118455;27;20232;-63
2023/06/23 01:27:08;;;;;;;12.02;6.88;;;;;;;;;;5118070;27;20193;-63
2023/06/23 01:29:36;;;;;;;12.38;6.68;;;;;;;;;;5117704;27;20201;-62
2023/06/23 01:32:21;;;;;;;14.38;7.93;;;;;;;;;;5101027;27;20202;-63
2023/06/23 01:34:51;;;;;;;13.90;6.45;;;;;;;;;;5118045;27;20189;-61
2023/06/23 01:37:26;;;;;;;19.30;7.88;;;;;;;;;;5135980;27;20201;-62
2023/06/23 01:39:57;;;;;;;15.30;8.30;;;;;;;;;;5135606;27;20250;-62
2023/06/23 01:42:34;;;;;;;15.48;8.48;;;;;;;;;;5117384;27;20545;-62
2023/06/23 01:45:05;;;;;;;14.27;8.15;;;;;;;;;;5117787;27;20571;-63
2023/06/23 01:47:34;;;;;;;13.27;8.73;;;;;;;;;;5135704;27;20197;-62
2023/06/23 01:50:02;;;;;;;19.30;8.40;;;;;;;;;;5135589;27;20198;-62
2023/06/23 01:52:33;;;;;;;17.15;8.50;;;;;;;;;;5117214;27;20200;-62
2023/06/23 01:55:01;;;;;;;16.17;8.32;;;;;;;;;;5117798;27;20227;-63
2023/06/23 01:57:31;;;;;;;13.63;9.15;;;;;;;;;;5116984;27;20208;-61
2023/06/23 01:59:58;;;;;;;19.35;8.73;;;;;;;;;;5100032;27;20239;-62
2023/06/23 02:02:26;;;;;;;16.98;8.35;;;;;;;;;;5117323;27;20205;-63
2023/06/23 02:04:57;;;;;;;14.75;8.18;;;;;;;;;;5135302;27;20229;-61
2023/06/23 02:07:26;;;;;;;13.63;7.55;;;;;;;;;;5117454;27;20213;-62
2023/06/23 02:09:54;;;;;;;13.55;6.82;;;;;;;;;;5116964;27;20660;-61
2023/06/23 02:12:22;;;;;;;9.40;6.45;;;;;;;;;;5135264;27;20193;-60
2023/06/23 02:14:50;;;;;;;17.45;6.38;;;;;;;;;;5116649;27;20201;-61
2023/06/23 02:17:21;;;;;;;20.95;7.40;;;;;;;;;;5100011;27;20234;-62
2023/06/23 02:19:50;;;;;;;15.80;7.10;;;;;;;;;;5134968;27;20221;-62
2023/06/23 02:22:21;;;;;;;12.40;6.88;;;;;;;;;;5116712;27;20575;-61
2023/06/23 02:24:48;;;;;;;19.27;7.38;;;;;;;;;;5116719;27;20201;-61
2023/06/23 02:27:17;;;;;;;11.38;6.57;;;;;;;;;;5117112;27;20201;-61
2023/06/23 02:29:45;;;;;;;11.77;7.55;;;;;;;;;;5134667;27;20733;-62
2023/06/23 02:32:17;;;;;;;15.52;8.10;;;;;;;;;;5134815;27;20201;-61
2023/06/23 02:34:46;;;;;;;9.57;6.85;;;;;;;;;;5134672;27;20225;-62
2023/06/23 02:37:21;;;;;;;12.65;7.95;;;;;;;;;;5116475;27;20190;-62
2023/06/23 02:39:54;;;;;;;23.67;9.02;;;;;;;;;;5116747;27;20213;-61
2023/06/23 02:42:27;;;;;;;13.75;8.00;;;;;;;;;;5100184;27;20205;-62
2023/06/23 02:45:02;;;;;;;17.02;8.68;;;;;;;;;;5117003;27;20220;-62
2023/06/23 02:47:36;;;;;;;16.00;8.82;;;;;;;;;;5099806;27;20201;-62
2023/06/23 02:50:05;;;;;;;17.75;8.13;;;;;;;;;;5116488;27;20206;-62
2023/06/23 02:52:36;;;;;;;12.63;7.70;;;;;;;;;;5134537;27;20204;-62
2023/06/23 02:55:05;;;;;;;20.85;7.60;;;;;;;;;;5134754;27;20224;-61
2023/06/23 02:57:33;;;;;;;16.95;7.50;;;;;;;;;;5116354;27;20671;-62
2023/06/23 03:00:01;;;;;;;22.33;7.57;;;;;;;;;;5099304;27;20655;-61
2023/06/23 03:02:30;;;;;;;9.38;7.18;;;;;;;;;;5134523;27;20197;-62
2023/06/23 03:04:58;;;;;;;13.70;7.70;;;;;;;;;;5134457;27;20221;-62
2023/06/23 03:07:25;;;;;;;17.98;6.85;;;;;;;;;;5116624;28;20568;-62
2023/06/23 03:09:53;;;;;;;14.55;8.55;;;;;;;;;;5099323;28;20233;-61
2023/06/23 03:12:21;;;;;;;16.83;8.38;;;;;;;;;;5116241;28;20217;-62
2023/06/23 03:14:49;;;;;;;22.75;8.25;;;;;;;;;;5134163;28;20205;-61
2023/06/23 03:17:22;;;;;;;17.52;9.05;;;;;;;;;;5110230;28;20209;-62
2023/06/23 03:19:56;;;;;;;15.18;8.68;;;;;;;;;;5094126;28;20271;-60
2023/06/23 03:22:27;;;;;;;15.45;8.93;;;;;;;;;;5112163;28;20186;-62
2023/06/23 03:24:57;;;;;;;13.30;8.98;;;;;;;;;;5077122;28;20190;-60
2023/06/23 03:27:26;;;;;;;15.65;8.85;;;;;;;;;;5112251;28;20201;-61
2023/06/23 03:30:03;;;;;;;21.83;9.82;;;;;;;;;;5104430;28;20239;-58
2023/06/23 03:32:33;;;;;;;16.10;10.57;;;;;;;;;;5132357;28;20245;-60
2023/06/23 03:35:04;;;;;;;12.85;9.32;;;;;;;;;;5114064;28;20653;-60
2023/06/23 03:37:33;;;;;;;16.38;10.32;;;;;;;;;;5114315;28;20185;-61
2023/06/23 03:40:04;;;;;;;18.60;10.40;;;;;;;;;;5133789;28;20244;-61
2023/06/23 03:42:34;;;;;;;15.30;10.23;;;;;;;;;;5116851;28;20201;-61
2023/06/23 03:45:02;;;;;;;23.55;11.60;;;;;;;;;;5116301;28;20208;-61
2023/06/23 03:47:30;;;;;;;16.52;10.23;;;;;;;;;;5116183;27;20208;-61
2023/06/23 03:50:10;;;;;;;16.20;10.25;;;;;;;;;;5119851;27;20232;-61
2023/06/23 03:52:39;;;;;;;15.45;10.57;;;;;;;;;;5119821;27;20201;-60
2023/06/23 03:55:07;;;;;;;17.08;9.70;;;;;;;;;;5136602;27;20208;-61
2023/06/23 03:57:35;;;;;;;17.88;10.18;;;;;;;;;;5117700;27;20197;-60
2023/06/23 04:00:03;;;;;;;15.85;10.02;;;;;;;;;;5114948;27;20228;-60
2023/06/23 04:02:41;;;;;;;14.55;9.82;;;;;;;;;;5118271;27;20224;-60
2023/06/23 04:05:12;;;;;;;15.32;9.38;;;;;;;;;;5135522;27;20221;-61
2023/06/23 04:07:44;;;;;;;11.23;7.88;;;;;;;;;;5117993;27;20225;-60
2023/06/23 04:10:12;;;;;;;15.57;9.20;;;;;;;;;;5117948;27;20221;-61
2023/06/23 04:12:41;;;;;;;15.07;8.40;;;;;;;;;;5106244;27;20584;-61
2023/06/23 04:15:09;;;;;;;12.60;8.50;;;;;;;;;;5117695;27;20256;-60
2023/06/23 04:17:38;;;;;;;11.18;7.88;;;;;;;;;;5137002;27;20224;-61
2023/06/23 04:20:07;;;;;;;13.65;7.78;;;;;;;;;;5117435;27;20810;-60
2023/06/23 04:22:36;;;;;;;12.07;7.97;;;;;;;;;;5103613;28;20229;-62
2023/06/23 04:25:05;;;;;;;12.10;7.40;;;;;;;;;;5098429;28;20588;-61
2023/06/23 04:27:34;;;;;;;10.32;7.03;;;;;;;;;;5098340;28;20221;-63
2023/06/23 04:30:02;;;;;;;11.13;6.95;;;;;;;;;;5097270;28;20708;-64
2023/06/23 04:32:29;;;;;;;9.25;6.25;;;;;;;;;;5111826;27;20229;-65
2023/06/23 04:34:56;;;;;;;11.93;7.28;;;;;;;;;;5136493;27;20228;-64
2023/06/23 04:37:39;;;;;;;11.80;7.20;;;;;;;;;;5136464;27;20603;-65
2023/06/23 04:40:33;;;;;;;12.90;6.90;;;;;;;;;;5117248;27;20337;-63
2023/06/23 04:43:09;;;;;;;11.10;6.88;;;;;;;;;;5135345;27;20217;-64
2023/06/23 04:45:41;;;;;;;10.93;7.68;;;;;;;;;;5109572;28;20214;-65
2023/06/23 04:48:11;;;;;;;8.15;6.20;;;;;;;;;;5115272;27;20217;-63
2023/06/23 04:50:39;;;;;;;10.90;6.90;;;;;;;;;;5118149;27;20228;-63
2023/06/23 04:53:23;;;;;;;10.32;6.88;;;;;;;;;;5116221;27;20616;-63
2023/06/23 04:55:53;;;;;;;14.02;7.00;;;;;;;;;;5099133;27;20219;-61
2023/06/23 04:58:23;;;;;;;7.95;5.40;;;;;;;;;;5134767;27;20272;-63
2023/06/23 05:00:51;;;;;;;9.00;6.68;;;;;;;;;;5116188;27;20227;-63
2023/06/23 05:03:20;;;;;;;10.02;6.13;;;;;;;;;;5134915;27;20710;-63
2023/06/23 05:05:51;;;;;;;8.23;5.88;;;;;;;;;;5116916;27;20232;-64
2023/06/23 05:08:20;;;;;;;8.27;5.80;;;;;;;;;;5115291;27;20262;-63
2023/06/23 05:10:47;;;;;;;7.18;5.28;;;;;;;;;;5117279;27;20213;-61
2023/06/23 05:13:17;;;;;;;7.05;5.35;;;;;;;;;;5114698;27;20220;-63
2023/06/23 05:15:46;;;;;;;8.73;5.63;;;;;;;;;;5134781;27;20252;-61
2023/06/23 05:18:16;;;;;;;7.60;5.53;;;;;;;;;;5134882;27;20225;-62
2023/06/23 05:20:44;;;;;;;7.38;5.03;;;;;;;;;;5096987;28;20309;-63
2023/06/23 05:23:13;;;;;;;8.57;5.00;;;;;;;;;;5115094;28;20262;-62
2023/06/23 05:25:42;;;;;;;7.55;5.07;;;;;;;;;;5114970;28;20213;-62
2023/06/23 05:28:11;;;;;;;7.55;4.97;;;;;;;;;;5096727;28;20214;-61
2023/06/23 05:30:40;;;;;;;6.05;4.45;;;;;;;;;;5096992;28;20283;-61
2023/06/23 05:33:09;;;;;;;7.85;4.40;;;;;;;;;;5096451;28;20226;-63
2023/06/23 05:35:37;;;;;;;8.98;5.00;;;;;;;;;;5097137;28;20226;-63
2023/06/23 05:38:06;;;;;;;8.25;5.90;;;;;;;;;;5096409;28;20226;-63
2023/06/23 05:40:33;;;;;;;7.15;5.00;;;;;;;;;;5114518;28;20615;-62
2023/06/23 05:43:01;;;;;;;8.57;5.00;;;;;;;;;;5114500;28;20688;-63
2023/06/23 05:45:28;;;;;;;6.22;5.15;;;;;;;;;;5115198;28;20198;-63
2023/06/23 05:48:11;;;;;;;9.35;4.95;;;;;;;;;;5115457;28;20224;-63
2023/06/23 05:50:41;;;;;;;8.57;5.75;;;;;;;;;;5097197;28;20426;-63
2023/06/23 05:53:19;;;;;;;6.88;5.18;;;;;;;;;;5114898;28;20198;-63
2023/06/23 05:55:51;;;;;;;8.15;5.07;;;;;;;;;;5115406;28;20201;-63
2023/06/23 05:58:22;;;;;;;8.43;5.38;;;;;;;;;;5097643;28;20214;-63
2023/06/23 06:00:57;;;;;;;7.63;4.85;;;;;;;;;;5097129;28;20237;-63
2023/06/23 06:03:29;;;;;;;7.60;5.43;;;;;;;;;;5097202;28;20205;-62
2023/06/23 06:05:59;;;;;;;7.05;4.90;;;;;;;;;;5114875;28;20351;-63
2023/06/23 06:08:26;;;;;;;10.38;5.15;;;;;;;;;;5096941;28;20213;-63
2023/06/23 06:10:55;;;;;;;7.85;4.97;;;;;;;;;;5096144;28;20664;-62
2023/06/23 06:13:22;;;;;;;6.45;4.10;;;;;;;;;;5114678;28;20247;-63
2023/06/23 06:15:51;;;;;;;6.47;4.80;;;;;;;;;;5096731;28;20212;-64
2023/06/23 06:18:19;;;;;;;7.38;5.38;;;;;;;;;;5096789;28;20209;-63
2023/06/23 06:20:47;;;;;;;10.10;5.18;;;;;;;;;;5114762;28;20222;-63
2023/06/23 06:23:15;;;;;;;7.25;5.10;;;;;;;;;;5114713;28;20198;-63
2023/06/23 06:25:54;;;;;;;6.47;5.07;;;;;;;;;;5097891;28;20206;-62
2023/06/23 06:28:24;;;;;;;9.80;4.68;;;;;;;;;;5096531;28;20661;-63
2023/06/23 06:30:52;;;;;;;6.97;5.10;;;;;;;;;;5096308;28;20205;-62
2023/06/23 06:33:20;;;;;;;7.28;5.03;;;;;;;;;;5096366;28;20201;-63
2023/06/23 06:35:48;;;;;;;6.70;4.97;;;;;;;;;;5096501;28;20728;-63
2023/06/23 06:38:16;;;;;;;5.63;4.38;;;;;;;;;;5114220;28;20198;-62
2023/06/23 06:40:46;;;;;;;7.95;5.60;;;;;;;;;;5114194;28;20245;-62
2023/06/23 06:43:13;;;;;;;9.68;5.10;;;;;;;;;;5096547;28;20206;-61
2023/06/23 06:45:41;;;;;;;8.75;4.97;;;;;;;;;;5096622;28;20194;-62
2023/06/23 06:48:08;;;;;;;10.98;5.07;;;;;;;;;;5114163;28;20669;-61
2023/06/23 06:50:36;;;;;;;7.40;4.63;;;;;;;;;;5114130;28;20205;-62
2023/06/23 06:53:04;;;;;;;7.38;4.95;;;;;;;;;;5114050;28;20557;-62
2023/06/23 06:55:31;;;;;;;7.60;5.05;;;;;;;;;;5113909;28;20208;-62
2023/06/23 06:57:59;;;;;;;7.18;5.15;;;;;;;;;;5114261;28;20209;-63
2023/06/23 07:00:26;;;;;;;7.38;5.57;;;;;;;;;;5114143;28;20217;-63
2023/06/23 07:02:56;;;;;;;6.78;5.07;;;;;;;;;;5114274;28;20198;-62
2023/06/23 07:05:23;;;;;;;6.80;4.70;;;;;;;;;;5092606;28;20230;-63
2023/06/23 07:07:50;;;;;;;10.63;5.35;;;;;;;;;;5093808;28;20214;-61
2023/06/23 07:10:18;;;;;;;5.60;4.57;;;;;;;;;;5093649;28;20559;-61
2023/06/23 07:12:45;;;;;;;8.05;4.85;;;;;;;;;;5093792;28;20213;-62
2023/06/23 07:15:12;;;;;;;7.45;4.65;;;;;;;;;;5093422;28;20206;-62
2023/06/23 07:17:40;;;;;;;7.10;5.20;;;;;;;;;;5093385;28;20688;-63
2023/06/23 07:20:08;;;;;;;7.55;5.35;;;;;;;;;;5093606;28;20207;-62
2023/06/23 07:22:36;;;;;;;7.35;5.28;;;;;;;;;;5095509;28;20234;-63
2023/06/23 07:25:03;;;;;;;8.38;5.07;;;;;;;;;;5096350;28;20256;-62
2023/06/23 07:27:30;;;;;;;9.45;5.63;;;;;;;;;;5097518;28;20653;-62
2023/06/23 07:29:58;;;;;;;8.38;5.63;;;;;;;;;;5097693;28;20203;-63
2023/06/23 07:32:26;;;;;;;8.25;5.60;;;;;;;;;;5097680;28;20206;-63
2023/06/23 07:34:53;;;;;;;6.95;4.88;;;;;;;;;;5097704;28;20210;-61
2023/06/23 07:37:20;;;;;;;7.40;5.13;;;;;;;;;;5097342;28;20607;-62
2023/06/23 07:39:47;;;;;;;8.15;5.65;;;;;;;;;;5097496;28;20543;-63
2023/06/23 07:42:15;;;;;;;7.78;5.45;;;;;;;;;;5097446;28;20230;-62
2023/06/23 07:44:43;;;;;;;7.50;5.75;;;;;;;;;;5097446;28;20203;-62
2023/06/23 07:47:11;;;;;;;6.00;5.07;;;;;;;;;;5097143;28;20202;-63
2023/06/23 07:49:41;;;;;;;7.53;5.63;;;;;;;;;;5097583;28;20241;-63
2023/06/23 07:52:08;;;;;;;9.57;5.78;;;;;;;;;;5097000;28;20199;-63
2023/06/23 07:54:39;;;;;;;9.75;6.32;;;;;;;;;;5097151;28;20581;-63
2023/06/23 07:57:08;;;;;;;12.25;6.18;;;;;;;;;;5106196;28;20201;-62
2023/06/23 07:59:35;;;;;;;8.15;5.85;;;;;;;;;;5117789;28;20197;-62
2023/06/23 08:02:03;;;;;;;7.50;5.72;;;;;;;;;;5117278;28;20225;-61
2023/06/23 08:04:30;;;;;;;7.65;5.90;;;;;;;;;;5121488;27;20233;-63
2023/06/23 08:06:58;;;;;;;10.18;6.18;;;;;;;;;;5138046;27;20208;-62
2023/06/23 08:09:25;;;;;;;11.07;6.70;;;;;;;;;;5137661;27;20550;-62
2023/06/23 08:11:52;;;;;;;10.73;6.43;;;;;;;;;;5137798;27;20253;-61
2023/06/23 08:14:19;;;;;;;9.07;6.53;;;;;;;;;;5137549;27;20237;-62
2023/06/23 08:16:47;;;;;;;9.43;6.40;;;;;;;;;;5137488;27;20709;-62
2023/06/23 08:19:21;;;;;;;9.90;6.28;;;;;;;;;;5119472;27;20197;-62
2023/06/23 08:21:49;;;;;;;7.90;6.38;;;;;;;;;;5137831;27;20225;-62
2023/06/23 08:24:16;;;;;;;9.27;6.95;;;;;;;;;;5137461;27;20202;-63
2023/06/23 08:26:44;;;;;;;8.23;6.20;;;;;;;;;;5137522;27;20212;-62
2023/06/23 08:29:12;;;;;;;9.05;6.80;;;;;;;;;;5137406;27;20201;-63
2023/06/23 08:31:39;;;;;;;7.53;5.97;;;;;;;;;;5137410;27;20213;-62
2023/06/23 08:34:06;;;;;;;7.93;5.80;;;;;;;;;;5136038;27;20559;-62
2023/06/23 08:36:33;;;;;;;8.90;6.50;;;;;;;;;;5137068;27;20193;-62
2023/06/23 08:39:00;;;;;;;9.23;5.68;;;;;;;;;;5137281;27;20197;-62
2023/06/23 08:41:29;;;;;;;7.68;5.75;;;;;;;;;;5136823;27;20225;-62
2023/06/23 08:43:59;;;;;;;9.15;6.82;;;;;;;;;;5136894;27;20568;-62
2023/06/23 08:46:31;;;;;;;8.80;6.28;;;;;;;;;;5137287;27;20201;-62
2023/06/23 08:49:10;;;;;;;12.02;6.63;;;;;;;;;;5136734;27;20795;-62
2023/06/23 08:51:40;;;;;;;8.75;6.25;;;;;;;;;;5118810;27;20212;-63
2023/06/23 08:54:07;;;;;;;7.25;5.55;;;;;;;;;;5136784;27;20656;-63
2023/06/23 08:56:34;;;;;;;7.47;5.80;;;;;;;;;;5136768;27;20204;-62
2023/06/23 08:59:01;;;;;;;8.93;6.10;;;;;;;;;;5136858;27;20285;-62
2023/06/23 09:01:29;;;;;;;8.95;6.78;;;;;;;;;;5136432;27;20221;-62
2023/06/23 09:03:56;;;;;;;7.35;5.55;;;;;;;;;;5118808;27;20224;-62
2023/06/23 09:06:23;;;;;;;7.85;5.97;;;;;;;;;;5118625;27;20225;-63
2023/06/23 09:08:50;;;;;;;6.68;5.30;;;;;;;;;;5136454;27;20682;-63
2023/06/23 09:11:18;;;;;;;8.50;5.15;;;;;;;;;;5136569;27;20598;-62
2023/06/23 09:13:45;;;;;;;7.82;5.63;;;;;;;;;;5136409;27;20687;-62
2023/06/23 09:16:15;;;;;;;8.70;5.78;;;;;;;;;;5136305;27;20212;-62
2023/06/23 09:18:46;;;;;;;9.20;5.93;;;;;;;;;;5136594;27;20205;-63
2023/06/23 09:21:13;;;;;;;9.52;5.90;;;;;;;;;;5136371;27;20623;-61
2023/06/23 09:23:57;;;;;;;6.82;5.60;;;;;;;;;;5136196;27;20205;-62
2023/06/23 09:26:25;;;;;;;8.00;6.05;;;;;;;;;;5118270;27;20640;-63
2023/06/23 09:28:52;;;;;;;8.00;5.53;;;;;;;;;;5134218;27;20649;-61
2023/06/23 09:31:19;;;;;;;5.63;4.53;;;;;;;;;;5134822;27;20298;-63
2023/06/23 09:33:52;;;;;;;8.73;5.10;;;;;;;;;;5135414;27;20202;-62
2023/06/23 09:36:19;;;;;;;5.97;4.68;;;;;;;;;;5135977;27;20198;-63
2023/06/23 09:38:49;;;;;;;6.15;5.15;;;;;;;;;;5136003;27;20204;-63
2023/06/23 09:41:17;;;;;;;7.53;5.95;;;;;;;;;;5136077;27;20205;-63
2023/06/23 09:43:50;;;;;;;7.13;5.53;;;;;;;;;;5136097;27;20233;-63
2023/06/23 09:46:24;;;;;;;6.97;5.07;;;;;;;;;;5134747;27;20255;-62
2023/06/23 09:48:52;;;;;;;8.20;5.32;;;;;;;;;;5135782;27;20201;-62
2023/06/23 09:51:20;;;;;;;7.35;5.22;;;;;;;;;;5135645;27;20197;-63
2023/06/23 09:53:47;;;;;;;9.05;5.55;;;;;;;;;;5135432;27;20225;-63
2023/06/23 09:56:16;;;;;;;5.88;5.22;;;;;;;;;;5135655;27;20205;-62
2023/06/23 09:58:44;;;;;;;7.28;5.07;;;;;;;;;;5135583;27;20201;-63
2023/06/23 10:01:13;;;;;;;7.45;4.68;;;;;;;;;;5135045;27;20284;-63
2023/06/23 10:03:48;;;;;;;6.00;4.47;;;;;;;;;;5132394;27;20194;-63
2023/06/23 10:06:39;;;;;;;7.05;4.60;;;;;;;;;;5133033;27;20220;-63
2023/06/23 10:09:09;;;;;;;5.32;4.10;;;;;;;;;;5134525;27;20201;-63
2023/06/23 10:11:38;;;;;;;4.97;3.90;;;;;;;;;;5134646;27;20189;-64
2023/06/23 10:14:10;;;;;;;7.45;4.85;;;;;;;;;;5135320;27;20201;-63
2023/06/23 10:16:44;;;;;;;6.82;5.00;;;;;;;;;;5133336;27;20246;-62
2023/06/23 10:19:12;;;;;;;8.65;4.32;;;;;;;;;;5133660;27;20664;-64
2023/06/23 10:21:43;;;;;;;6.53;4.40;;;;;;;;;;5132578;27;20270;-63
2023/06/23 10:24:13;;;;;;;6.85;4.47;;;;;;;;;;5134909;27;20534;-62
2023/06/23 10:26:41;;;;;;;5.85;4.75;;;;;;;;;;5116645;27;20186;-61
2023/06/23 10:29:13;;;;;;;6.00;4.40;;;;;;;;;;5116524;27;20189;-62
2023/06/23 10:31:41;;;;;;;5.80;4.18;;;;;;;;;;5134041;27;20197;-67
2023/06/23 10:34:12;;;;;;;5.85;4.60;;;;;;;;;;5134414;27;20206;-66
2023/06/23 10:36:42;;;;;;;5.75;4.40;;;;;;;;;;5134299;27;20196;-66
2023/06/23 10:39:10;;;;;;;5.45;4.22;;;;;;;;;;5116401;27;20200;-67
2023/06/23 10:41:40;;;;;;;7.75;4.40;;;;;;;;;;5129797;27;20630;-64
2023/06/23 10:44:08;;;;;;;5.28;3.88;;;;;;;;;;5120966;27;20224;-65
2023/06/23 10:46:35;;;;;;;6.07;4.20;;;;;;;;;;5131336;27;20221;-64
2023/06/23 10:49:04;;;;;;;5.38;3.85;;;;;;;;;;5103906;28;20221;-64
2023/06/23 10:51:32;;;;;;;6.80;4.45;;;;;;;;;;5132603;27;20786;-62
2023/06/23 10:54:02;;;;;;;6.15;4.22;;;;;;;;;;5132085;27;20233;-65
2023/06/23 10:56:35;;;;;;;6.22;4.30;;;;;;;;;;5132606;27;20308;-65
2023/06/23 10:59:17;;;;;;;4.50;3.45;;;;;;;;;;5133344;28;20232;-66
2023/06/23 11:01:59;;;;;;;5.85;4.22;;;;;;;;;;5112662;28;20653;-66
2023/06/23 11:04:31;;;;;;;7.75;3.95;;;;;;;;;;5113148;28;20290;-63
2023/06/23 11:07:09;;;;;;;5.50;4.20;;;;;;;;;;5112490;28;20208;-65
2023/06/23 11:10:01;;;;;;;5.03;3.90;;;;;;;;;;5112751;28;20204;-65
2023/06/23 11:12:36;;;;;;;5.95;4.00;;;;;;;;;;5113831;28;20235;-66
2023/06/23 11:15:25;;;;;;;5.22;3.97;;;;;;;;;;5113732;28;20201;-67
2023/06/23 11:18:05;;;;;;;7.25;4.72;;;;;;;;;;5113947;28;20208;-66
2023/06/23 11:20:39;;;;;;;6.75;4.53;;;;;;;;;;5113740;28;20198;-66
2023/06/23 11:23:08;;;;;;;6.10;4.47;;;;;;;;;;5113935;28;20236;-66
2023/06/23 11:25:50;;;;;;;4.88;3.90;;;;;;;;;;5113003;28;20220;-65
2023/06/23 11:28:38;;;;;;;7.43;4.53;;;;;;;;;;5112712;28;20676;-66
2023/06/23 11:31:10;;;;;;;6.95;4.35;;;;;;;;;;5113880;28;20212;-66
2023/06/23 11:33:39;;;;;;;5.32;4.30;;;;;;;;;;5131336;28;20640;-67
2023/06/23 11:36:19;;;;;;;5.43;4.15;;;;;;;;;;5120881;28;20189;-68
2023/06/23 11:38:46;;;;;;;5.85;4.50;;;;;;;;;;5132118;28;20201;-66
2023/06/23 11:41:15;;;;;;;6.30;4.50;;;;;;;;;;5133196;28;20223;-68
2023/06/23 11:43:42;;;;;;;6.32;4.40;;;;;;;;;;5131292;28;20232;-67
2023/06/23 11:46:14;;;;;;;6.35;4.40;;;;;;;;;;5131036;28;20205;-68
2023/06/23 11:48:43;;;;;;;5.57;4.68;;;;;;;;;;5133759;28;20235;-68
2023/06/23 11:51:14;;;;;;;9.10;4.75;;;;;;;;;;5130556;28;20195;-68
2023/06/23 11:53:41;;;;;;;6.78;4.88;;;;;;;;;;5132581;28;20200;-62
2023/06/23 11:56:09;;;;;;;6.50;4.20;;;;;;;;;;5114837;28;20205;-67
2023/06/23 11:58:36;;;;;;;5.45;4.55;;;;;;;;;;5133420;28;20275;-68
2023/06/23 12:01:04;;;;;;;5.78;4.43;;;;;;;;;;5133134;28;20672;-67
2023/06/23 12:03:35;;;;;;;8.18;4.60;;;;;;;;;;5133807;28;20217;-68
2023/06/23 12:06:04;;;;;;;5.82;4.43;;;;;;;;;;5133902;28;20241;-68
2023/06/23 12:08:32;;;;;;;6.15;4.25;;;;;;;;;;5113166;28;20565;-68
2023/06/23 12:10:59;;;;;;;8.68;4.72;;;;;;;;;;5128071;27;20197;-67
2023/06/23 12:13:27;;;;;;;9.45;4.38;;;;;;;;;;5137254;27;20205;-68
2023/06/23 12:15:55;;;;;;;8.05;4.40;;;;;;;;;;5136290;27;20201;-67
2023/06/23 12:18:24;;;;;;;5.68;4.47;;;;;;;;;;5136971;27;20548;-68
2023/06/23 12:20:52;;;;;;;7.88;4.63;;;;;;;;;;5136456;27;20564;-67
2023/06/23 12:23:19;;;;;;;6.50;4.53;;;;;;;;;;5135147;27;20217;-68
2023/06/23 12:25:49;;;;;;;6.53;4.72;;;;;;;;;;5117668;27;20282;-67
2023/06/23 12:28:21;;;;;;;9.82;4.68;;;;;;;;;;5135755;27;20194;-69
2023/06/23 12:30:50;;;;;;;7.88;4.72;;;;;;;;;;5135334;27;20186;-67
2023/06/23 12:33:27;;;;;;;6.72;4.97;;;;;;;;;;5135509;27;20204;-66
2023/06/23 12:36:02;;;;;;;7.03;5.07;;;;;;;;;;5134737;27;20578;-67
2023/06/23 12:38:31;;;;;;;8.95;5.30;;;;;;;;;;5136732;27;20698;-67
2023/06/23 12:41:17;;;;;;;11.20;5.35;;;;;;;;;;5136548;27;20254;-68
2023/06/23 12:43:45;;;;;;;7.25;4.82;;;;;;;;;;5117607;27;20212;-67
2023/06/23 12:46:14;;;;;;;9.73;5.80;;;;;;;;;;5136104;27;20194;-68
2023/06/23 12:48:42;;;;;;;7.40;5.47;;;;;;;;;;5136926;27;20202;-67
2023/06/23 12:51:10;;;;;;;7.18;5.20;;;;;;;;;;5136651;27;20189;-60
2023/06/23 12:53:37;;;;;;;9.27;5.43;;;;;;;;;;5136442;27;20211;-66
2023/06/23 12:56:04;;;;;;;6.07;4.70;;;;;;;;;;5136639;27;20640;-65
2023/06/23 12:58:31;;;;;;;9.30;6.32;;;;;;;;;;5136669;27;20527;-39
2023/06/23 13:01:07;;;;;;;8.15;5.75;;;;;;;;;;5136664;27;20294;-38
2023/06/23 13:03:34;;;;;;;8.68;5.60;;;;;;;;;;5133315;27;20213;-40
2023/06/23 13:06:01;;;;;;;7.43;5.40;;;;;;;;;;5135847;27;20229;-40
2023/06/23 13:08:29;;;;;;;8.57;5.40;;;;;;;;;;5133530;27;20190;-39
2023/06/23 13:10:56;;;;;;;8.07;5.57;;;;;;;;;;5136004;27;20194;-39
2023/06/23 13:13:23;;;;;;;8.15;5.25;;;;;;;;;;5135864;27;20731;-39
2023/06/23 13:15:51;;;;;;;7.65;5.43;;;;;;;;;;5136028;27;20220;-40
2023/06/23 13:18:18;;;;;;;6.80;5.45;;;;;;;;;;5135574;27;20281;-39
2023/06/23 13:20:45;;;;;;;11.00;6.38;;;;;;;;;;5135600;27;20205;-39
2023/06/23 13:23:12;;;;;;;7.45;5.63;;;;;;;;;;5135570;27;20699;-39
2023/06/23 13:25:39;;;;;;;8.27;5.80;;;;;;;;;;5117800;27;20197;-39
2023/06/23 13:28:06;;;;;;;11.38;5.45;;;;;;;;;;5135730;27;20193;-39
2023/06/23 13:30:34;;;;;;;8.98;5.68;;;;;;;;;;5135855;27;20197;-39
2023/06/23 13:33:01;;;;;;;10.13;6.25;;;;;;;;;;5135598;27;20193;-40
2023/06/23 13:35:28;;;;;;;7.75;5.40;;;;;;;;;;5135600;27;20247;-39
2023/06/23 13:37:57;;;;;;;9.00;5.45;;;;;;;;;;5132754;27;20648;-40
2023/06/23 13:40:26;;;;;;;6.75;5.47;;;;;;;;;;5135754;27;20205;-39
2023/06/23 13:42:53;;;;;;;8.70;5.75;;;;;;;;;;5135214;27;20216;-40
2023/06/23 13:45:21;;;;;;;8.45;5.10;;;;;;;;;;5135256;27;20198;-39
2023/06/23 13:47:48;;;;;;;7.97;5.88;;;;;;;;;;5135270;27;20254;-39
2023/06/23 13:50:15;;;;;;;8.23;5.70;;;;;;;;;;5132644;27;20204;-39
2023/06/23 13:52:43;;;;;;;8.57;5.80;;;;;;;;;;5132233;27;20711;-38
2023/06/23 13:55:12;;;;;;;10.02;5.90;;;;;;;;;;5122108;27;20202;-40
2023/06/23 13:57:39;;;;;;;9.90;5.72;;;;;;;;;;5134169;27;20209;-39
2023/06/23 14:00:12;;;;;;;12.40;5.90;;;;;;;;;;5134601;27;20206;-39
2023/06/23 14:02:39;;;;;;;7.63;5.50;;;;;;;;;;5134773;27;20614;-39
2023/06/23 14:05:07;;;;;;;7.03;5.30;;;;;;;;;;5135227;27;20270;-39
2023/06/23 14:07:34;;;;;;;9.23;5.40;;;;;;;;;;5135537;27;20209;-38
2023/06/23 14:10:03;;;;;;;7.80;5.63;;;;;;;;;;5135663;27;20219;-39
2023/06/23 14:12:32;;;;;;;6.45;5.13;;;;;;;;;;5135086;27;20202;-39
2023/06/23 14:15:00;;;;;;;8.98;5.53;;;;;;;;;;5117089;27;20541;-39
2023/06/23 14:17:27;;;;;;;9.80;5.80;;;;;;;;;;5114491;28;20206;-38
2023/06/23 14:19:54;;;;;;;7.75;5.65;;;;;;;;;;5114811;28;20255;-39
2023/06/23 14:22:21;;;;;;;9.77;5.47;;;;;;;;;;5114551;28;20202;-39
2023/06/23 14:24:49;;;;;;;6.28;4.72;;;;;;;;;;5114641;28;20252;-39
2023/06/23 14:27:16;;;;;;;6.88;4.85;;;;;;;;;;5114734;28;20202;-40
2023/06/23 14:29:43;;;;;;;6.65;4.85;;;;;;;;;;5114537;28;20209;-40
2023/06/23 14:32:10;;;;;;;6.07;3.88;;;;;;;;;;5113604;28;20198;-38
2023/06/23 14:34:38;;;;;;;6.78;4.97;;;;;;;;;;5114567;28;20214;-39
2023/06/23 14:37:05;;;;;;;9.57;4.20;;;;;;;;;;5096674;28;20218;-38
2023/06/23 14:39:32;;;;;;;8.02;5.05;;;;;;;;;;5114490;28;20213;-39
2023/06/23 14:41:59;;;;;;;6.68;4.57;;;;;;;;;;5114099;28;20194;-40
2023/06/23 14:44:27;;;;;;;5.90;4.60;;;;;;;;;;5114381;28;20232;-40
2023/06/23 14:46:55;;;;;;;7.18;4.82;;;;;;;;;;5096228;28;20729;-38
2023/06/23 14:49:23;;;;;;;8.98;5.07;;;;;;;;;;5129898;27;20288;-38
2023/06/23 14:51:50;;;;;;;10.75;4.38;;;;;;;;;;5134905;27;20212;-38
2023/06/23 14:54:18;;;;;;;7.15;4.20;;;;;;;;;;5134712;27;20209;-38